Station: EBSP - 12/12/2019 21:21Z (il y a 16 minutes)
EBSP 122120Z AUTO 16014G24KT 9999 -RA BKN006/// OVC008/// 01/M01 Q0986
Vent du 160º - 14 kt - rafales 24 kt
Visibilité > 10 km (faible pluie)
Ciel 75% couvert à 600 pieds - Ciel couvert à 800 pieds
Température: +01ºC - Point de rosée: -01ºC - QNH: 986 hPa